Time,TemperatureF,DewpointF,PressureIn,WindDirection,WindDirectionDegrees,WindSpeedMPH,WindSpeedGustMPH,Humidity,HourlyPrecipIn,Conditions,Clouds,dailyrainin,SolarRadiationWatts/m^2,SoftwareType,DateUTC
2013-10-31 00:01:00,43.0,39.0,-100.00,NNW,329,0.0,4.0,85,0.02,,,0.02,0.000000,,2013-10-31 07:01:00,
2013-10-31 00:11:00,41.0,37.0,-100.00,NW,315,0.0,4.0,85,0.00,,,0.02,0.000000,,2013-10-31 07:11:00,
2013-10-31 00:42:00,41.0,37.0,-100.00,NW,315,0.0,4.0,85,0.00,,,0.02,0.000000,,2013-10-31 07:42:00,
2013-10-31 00:52:00,41.0,37.0,-100.00,NW,315,0.0,4.0,85,0.00,,,0.02,0.000000,,2013-10-31 07:52:00,
2013-10-31 01:02:00,41.0,37.0,-100.00,NW,315,0.0,4.0,85,0.00,,,0.02,0.000000,,2013-10-31 08:02:00,
2013-10-31 01:11:00,42.0,39.0,-100.00,SE,141,0.0,3.0,89,0.00,,,0.02,0.000000,,2013-10-31 08:11:00,
2013-10-31 01:42:00,42.0,39.0,-100.00,SE,141,0.0,3.0,89,0.00,,,0.02,0.000000,,2013-10-31 08:42:00,
2013-10-31 01:52:00,42.0,39.0,-100.00,SE,141,0.0,3.0,89,0.00,,,0.02,0.000000,,2013-10-31 08:52:00,
2013-10-31 02:01:00,42.0,39.0,-100.00,SE,141,0.0,3.0,89,0.00,,,0.02,0.000000,,2013-10-31 09:01:00,
2013-10-31 02:11:00,42.0,40.0,-100.00,East,91,0.0,4.0,92,0.03,,,0.05,0.000000,,2013-10-31 09:11:00,
2013-10-31 02:43:00,42.0,40.0,-100.00,East,91,0.0,4.0,92,0.03,,,0.05,0.000000,,2013-10-31 09:43:00,
2013-10-31 02:53:00,42.0,40.0,-100.00,East,91,0.0,4.0,92,0.03,,,0.05,0.000000,,2013-10-31 09:53:00,
2013-10-31 03:03:00,42.0,40.0,-100.00,East,91,0.0,4.0,92,0.03,,,0.05,0.000000,,2013-10-31 10:03:00,
2013-10-31 03:11:00,40.0,38.0,-100.00,East,91,0.0,4.0,93,0.06,,,0.11,0.000000,,2013-10-31 10:11:00,
2013-10-31 03:42:00,40.0,38.0,-100.00,East,91,0.0,4.0,93,0.06,,,0.11,0.000000,,2013-10-31 10:42:00,
2013-10-31 03:53:00,40.0,38.0,-100.00,East,91,0.0,4.0,93,0.06,,,0.11,0.000000,,2013-10-31 10:53:00,
2013-10-31 04:03:00,40.0,38.0,-100.00,East,91,0.0,4.0,93,0.06,,,0.11,0.000000,,2013-10-31 11:03:00,
2013-10-31 04:11:00,40.0,38.0,-100.00,East,86,0.0,6.0,94,0.20,,,0.31,0.000000,,2013-10-31 11:11:00,
2013-10-31 04:42:00,40.0,38.0,-100.00,East,86,0.0,6.0,94,0.20,,,0.31,0.000000,,2013-10-31 11:42:00,
2013-10-31 04:52:00,40.0,38.0,-100.00,East,86,0.0,6.0,94,0.20,,,0.31,0.000000,,2013-10-31 11:52:00,
2013-10-31 05:01:00,40.0,38.0,-100.00,East,86,0.0,6.0,94,0.20,,,0.31,0.000000,,2013-10-31 12:01:00,
2013-10-31 05:11:00,42.0,40.0,-100.00,East,99,0.0,5.0,94,0.33,,,0.64,0.000000,,2013-10-31 12:11:00,
2013-10-31 05:42:00,42.0,40.0,-100.00,East,99,0.0,5.0,94,0.33,,,0.64,0.000000,,2013-10-31 12:42:00,
2013-10-31 05:52:00,42.0,40.0,-100.00,East,99,0.0,5.0,94,0.33,,,0.64,0.000000,,2013-10-31 12:52:00,
2013-10-31 06:01:00,42.0,40.0,-100.00,East,99,0.0,5.0,94,0.33,,,0.64,0.000000,,2013-10-31 13:01:00,
2013-10-31 06:11:00,42.0,41.0,-100.00,East,83,0.0,4.0,95,0.29,,,0.93,0.000000,,2013-10-31 13:11:00,
2013-10-31 06:42:00,42.0,41.0,-100.00,East,83,0.0,4.0,95,0.29,,,0.93,0.000000,,2013-10-31 13:42:00,
2013-10-31 06:52:00,42.0,41.0,-100.00,East,83,0.0,4.0,95,0.29,,,0.93,0.000000,,2013-10-31 13:52:00,
2013-10-31 07:02:00,42.0,41.0,-100.00,East,83,0.0,4.0,95,0.29,,,0.93,0.000000,,2013-10-31 14:02:00,
2013-10-31 07:11:00,42.0,41.0,-100.00,East,91,0.0,0.0,95,0.34,,,1.27,0.000000,,2013-10-31 14:11:00,
2013-10-31 07:42:00,42.0,41.0,-100.00,East,91,0.0,0.0,95,0.34,,,1.27,0.000000,,2013-10-31 14:42:00,
2013-10-31 07:52:00,42.0,41.0,-100.00,East,91,0.0,0.0,95,0.34,,,1.27,0.000000,,2013-10-31 14:52:00,
2013-10-31 08:01:00,42.0,41.0,-100.00,East,91,0.0,0.0,95,0.34,,,1.27,0.000000,,2013-10-31 15:01:00,
2013-10-31 08:11:00,42.0,41.0,-100.00,East,84,0.0,0.0,95,-99.99,,,-99.99,0.000000,,2013-10-31 15:11:00,
2013-10-31 09:11:00,42.0,41.0,-100.00,East,90,0.0,2.0,95,0.22,,,-99.99,11.000000,,2013-10-31 16:11:00,
2013-10-31 09:43:00,42.0,41.0,-100.00,East,90,0.0,2.0,95,0.22,,,-99.99,11.000000,,2013-10-31 16:43:00,
2013-10-31 09:53:00,42.0,41.0,-100.00,East,90,0.0,2.0,95,0.22,,,-99.99,11.000000,,2013-10-31 16:53:00,
2013-10-31 10:02:00,42.0,41.0,-100.00,East,90,0.0,2.0,95,0.22,,,-99.99,11.000000,,2013-10-31 17:02:00,
2013-10-31 10:11:00,43.0,42.0,-100.00,East,95,0.0,0.0,95,0.24,,,-99.99,34.000000,,2013-10-31 17:11:00,
2013-10-31 10:43:00,43.0,42.0,-100.00,East,95,0.0,0.0,95,0.24,,,-99.99,34.000000,,2013-10-31 17:43:00,
2013-10-31 10:52:00,43.0,42.0,-100.00,East,95,0.0,0.0,95,0.24,,,-99.99,34.000000,,2013-10-31 17:52:00,
2013-10-31 11:02:00,43.0,42.0,-100.00,East,95,0.0,0.0,95,0.24,,,-99.99,34.000000,,2013-10-31 18:02:00,
2013-10-31 11:11:00,44.0,43.0,-100.00,ESE,121,0.0,0.0,95,0.08,,,-99.99,58.000000,,2013-10-31 18:11:00,
2013-10-31 11:42:00,44.0,43.0,-100.00,ESE,121,0.0,0.0,95,0.08,,,-99.99,58.000000,,2013-10-31 18:42:00,
2013-10-31 11:52:00,44.0,43.0,-100.00,ESE,121,0.0,0.0,95,0.08,,,-99.99,58.000000,,2013-10-31 18:52:00,
2013-10-31 12:01:00,44.0,43.0,-100.00,ESE,121,0.0,0.0,95,0.08,,,-99.99,58.000000,,2013-10-31 19:01:00,
2013-10-31 12:11:00,47.0,45.0,-100.00,SSW,203,0.0,0.0,94,0.05,,,-99.99,100.000000,,2013-10-31 19:11:00,
2013-10-31 12:42:00,47.0,45.0,-100.00,SSW,203,0.0,0.0,94,0.05,,,-99.99,100.000000,,2013-10-31 19:42:00,
2013-10-31 12:52:00,47.0,45.0,-100.00,SSW,203,0.0,0.0,94,0.05,,,-99.99,100.000000,,2013-10-31 19:52:00,
2013-10-31 13:02:00,47.0,45.0,-100.00,SSW,203,0.0,0.0,94,0.05,,,-99.99,100.000000,,2013-10-31 20:02:00,
2013-10-31 13:11:00,48.0,46.0,-100.00,South,190,0.0,0.0,93,0.01,,,-99.99,121.000000,,2013-10-31 20:11:00,
2013-10-31 13:42:00,48.0,46.0,-100.00,South,190,0.0,0.0,93,0.01,,,-99.99,121.000000,,2013-10-31 20:42:00,
2013-10-31 13:52:00,48.0,46.0,-100.00,South,190,0.0,0.0,93,0.01,,,-99.99,121.000000,,2013-10-31 20:52:00,
2013-10-31 14:02:00,48.0,46.0,-100.00,South,190,0.0,0.0,93,0.01,,,-99.99,121.000000,,2013-10-31 21:02:00,
2013-10-31 14:11:00,49.0,47.0,-100.00,ESE,116,0.0,0.0,93,0.01,,,-99.99,138.000000,,2013-10-31 21:11:00,
2013-10-31 14:44:00,49.0,47.0,-100.00,ESE,116,0.0,0.0,93,0.01,,,-99.99,138.000000,,2013-10-31 21:44:00,
2013-10-31 14:54:00,49.0,47.0,-100.00,ESE,116,0.0,0.0,93,0.01,,,-99.99,138.000000,,2013-10-31 21:54:00,
2013-10-31 15:03:00,49.0,47.0,-100.00,ESE,116,0.0,0.0,93,0.01,,,-99.99,138.000000,,2013-10-31 22:03:00,
2013-10-31 15:11:00,48.0,46.0,-100.00,SSE,149,0.0,3.0,93,0.01,,,-99.99,106.000000,,2013-10-31 22:11:00,
2013-10-31 15:43:00,48.0,46.0,-100.00,SSE,149,0.0,3.0,93,0.01,,,-99.99,106.000000,,2013-10-31 22:43:00,
2013-10-31 15:53:00,48.0,46.0,-100.00,SSE,149,0.0,3.0,93,0.01,,,-99.99,106.000000,,2013-10-31 22:53:00,
2013-10-31 16:03:00,48.0,46.0,-100.00,SSE,149,0.0,3.0,93,0.01,,,-99.99,106.000000,,2013-10-31 23:03:00,
2013-10-31 16:11:00,50.0,48.0,-100.00,SE,126,0.0,3.0,93,0.00,,,-99.99,85.000000,,2013-10-31 23:11:00,
2013-10-31 16:43:00,50.0,48.0,-100.00,SE,126,0.0,3.0,93,0.00,,,-99.99,85.000000,,2013-10-31 23:43:00,
2013-10-31 16:54:00,50.0,48.0,-100.00,SE,126,0.0,3.0,93,0.00,,,-99.99,85.000000,,2013-10-31 23:54:00,
2013-10-31 17:01:00,50.0,48.0,-100.00,SE,126,0.0,3.0,93,0.00,,,-99.99,85.000000,,2013-11-01 00:01:00,
2013-10-31 17:11:00,49.0,47.0,-100.00,ESE,121,0.0,0.0,94,0.01,,,-99.99,39.000000,,2013-11-01 00:11:00,
2013-10-31 17:42:00,49.0,47.0,-100.00,ESE,121,0.0,0.0,94,0.01,,,-99.99,39.000000,,2013-11-01 00:42:00,
2013-10-31 17:52:00,49.0,47.0,-100.00,ESE,121,0.0,0.0,94,0.01,,,-99.99,39.000000,,2013-11-01 00:52:00,
2013-10-31 18:01:00,49.0,47.0,-100.00,ESE,121,0.0,0.0,94,0.01,,,-99.99,39.000000,,2013-11-01 01:01:00,
2013-10-31 18:11:00,47.0,45.0,-100.00,ESE,109,0.0,0.0,94,0.00,,,-99.99,9.000000,,2013-11-01 01:11:00,
2013-10-31 18:42:00,47.0,45.0,-100.00,ESE,109,0.0,0.0,94,0.00,,,-99.99,9.000000,,2013-11-01 01:42:00,
2013-10-31 18:52:00,47.0,45.0,-100.00,ESE,109,0.0,0.0,94,0.00,,,-99.99,9.000000,,2013-11-01 01:52:00,
2013-10-31 19:02:00,47.0,45.0,-100.00,ESE,109,0.0,0.0,94,0.00,,,-99.99,9.000000,,2013-11-01 02:02:00,
2013-10-31 19:11:00,45.0,44.0,-100.00,ESE,115,0.0,0.0,95,0.00,,,-99.99,0.000000,,2013-11-01 02:11:00,
2013-10-31 19:42:00,45.0,44.0,-100.00,ESE,115,0.0,0.0,95,0.00,,,-99.99,0.000000,,2013-11-01 02:42:00,
2013-10-31 19:52:00,45.0,44.0,-100.00,ESE,115,0.0,0.0,95,0.00,,,-99.99,0.000000,,2013-11-01 02:52:00,
2013-10-31 20:03:00,45.0,44.0,-100.00,ESE,115,0.0,0.0,95,0.00,,,-99.99,0.000000,,2013-11-01 03:03:00,
2013-10-31 20:11:00,47.0,46.0,-100.00,East,92,0.0,0.0,95,0.00,,,-99.99,0.000000,,2013-11-01 03:11:00,
2013-10-31 20:45:00,47.0,46.0,-100.00,East,92,0.0,0.0,95,0.00,,,-99.99,0.000000,,2013-11-01 03:45:00,
2013-10-31 20:54:00,47.0,46.0,-100.00,East,92,0.0,0.0,95,0.00,,,-99.99,0.000000,,2013-11-01 03:54:00,
2013-10-31 21:03:00,47.0,46.0,-100.00,East,92,0.0,0.0,95,0.00,,,-99.99,0.000000,,2013-11-01 04:03:00,
2013-10-31 21:11:00,47.0,46.0,-100.00,SE,134,0.0,0.0,95,0.00,,,-99.99,0.000000,,2013-11-01 04:11:00,
2013-10-31 21:43:00,47.0,46.0,-100.00,SE,134,0.0,0.0,95,0.00,,,-99.99,0.000000,,2013-11-01 04:43:00,
2013-10-31 21:54:00,47.0,46.0,-100.00,SE,134,0.0,0.0,95,0.00,,,-99.99,0.000000,,2013-11-01 04:54:00,
2013-10-31 22:03:00,47.0,46.0,-100.00,SE,134,0.0,0.0,95,0.00,,,-99.99,0.000000,,2013-11-01 05:03:00,
2013-10-31 22:11:00,47.0,46.0,-100.00,West,260,0.0,4.0,96,0.00,,,-99.99,0.000000,,2013-11-01 05:11:00,
2013-10-31 22:42:00,47.0,46.0,-100.00,West,260,0.0,4.0,96,0.00,,,-99.99,0.000000,,2013-11-01 05:42:00,
2013-10-31 22:53:00,47.0,46.0,-100.00,West,260,0.0,4.0,96,0.00,,,-99.99,0.000000,,2013-11-01 05:53:00,
2013-10-31 23:02:00,47.0,46.0,-100.00,West,260,0.0,4.0,96,0.00,,,-99.99,0.000000,,2013-11-01 06:02:00,
2013-10-31 23:11:00,47.0,46.0,-100.00,SSW,197,0.0,0.0,96,0.00,,,-99.99,0.000000,,2013-11-01 06:11:00,
2013-10-31 23:42:00,47.0,46.0,-100.00,SSW,197,0.0,0.0,96,0.00,,,-99.99,0.000000,,2013-11-01 06:42:00,
2013-10-31 23:52:00,47.0,46.0,-100.00,SSW,197,0.0,0.0,96,0.00,,,-99.99,0.000000,,2013-11-01 06:52:00,